Time;durP1;ratioP1;P1;durP2;ratioP2;P2;SDS_P1;SDS_P2;PMS_P1;PMS_P2;Temp;Humidity;BMP_temperature;BMP_pressure;BME280_temperature;BME280_humidity;BME280_pressure;Samples;Min_cycle;Max_cycle;Signal;HPM_P1;HPM_P2
2022/04/14 00:00:10;;;;;;;23.45;12.38;;;;;;;9.09;44.31;101245.09;2090320;28;20294;-64
2022/04/14 00:01:14;;;;;;;26.52;12.00;;;;;;;9.08;44.14;101237.28;2089924;28;20307;-63
2022/04/14 00:02:20;;;;;;;25.02;11.85;;;;;;;9.09;43.81;101233.56;2090996;28;20272;-64
2022/04/14 00:03:29;;;;;;;29.60;12.05;;;;;;;9.08;44.00;101239.97;2101007;28;20676;-64
2022/04/14 00:04:36;;;;;;;25.92;12.73;;;;;;;9.09;43.97;101244.28;2096226;28;20278;-64
2022/04/14 00:05:40;;;;;;;24.02;11.48;;;;;;;9.09;44.41;101242.41;2081176;28;20655;-64
2022/04/14 00:06:43;;;;;;;27.58;11.57;;;;;;;9.09;44.12;101241.59;2075080;28;20288;-64
2022/04/14 00:07:48;;;;;;;24.42;12.50;;;;;;;9.08;44.23;101239.97;2090035;28;20283;-64
2022/04/14 00:08:54;;;;;;;30.67;12.43;;;;;;;9.09;44.16;101237.03;2097827;28;20290;-64
2022/04/14 00:09:56;;;;;;;27.13;11.70;;;;;;;9.08;44.43;101234.59;2089390;28;20284;-64
2022/04/14 00:11:07;;;;;;;22.77;11.30;;;;;;;9.08;44.03;101240.81;2084680;28;20276;-65
2022/04/14 00:12:11;;;;;;;25.83;11.82;;;;;;;9.09;44.80;101241.59;2091215;28;20037;-64
2022/04/14 00:13:14;;;;;;;25.92;12.25;;;;;;;9.07;44.21;101233.00;2089724;28;20288;-64
2022/04/14 00:14:20;;;;;;;28.05;11.60;;;;;;;9.08;44.43;101234.59;2096961;28;20290;-63
2022/04/14 00:15:28;;;;;;;24.25;11.25;;;;;;;9.09;44.15;101237.03;2097856;28;20279;-63
2022/04/14 00:16:36;;;;;;;24.55;11.18;;;;;;;9.10;43.77;101230.63;2097276;28;20365;-64
2022/04/14 00:17:44;;;;;;;21.08;11.05;;;;;;;9.09;44.42;101230.88;2098628;28;20768;-63
2022/04/14 00:18:51;;;;;;;27.00;11.35;;;;;;;9.08;44.55;101232.75;2098056;28;20775;-63
2022/04/14 00:19:55;;;;;;;29.17;12.57;;;;;;;9.07;44.47;101233.78;2097788;28;20325;-63
2022/04/14 00:21:03;;;;;;;23.27;11.50;;;;;;;9.09;43.94;101230.88;2089126;28;20727;-63
2022/04/14 00:22:13;;;;;;;29.00;11.63;;;;;;;9.09;43.75;101233.56;2097380;28;20291;-64
2022/04/14 00:23:17;;;;;;;27.10;11.20;;;;;;;9.12;44.05;101230.38;2097281;28;20282;-64
2022/04/14 00:24:21;;;;;;;21.90;9.52;;;;;;;9.11;44.02;101229.56;2097416;28;20287;-64
2022/04/14 00:25:29;;;;;;;26.05;11.57;;;;;;;9.12;44.35;101235.75;2097406;28;20302;-63
2022/04/14 00:26:34;;;;;;;23.13;11.02;;;;;;;9.12;43.82;101222.31;2098271;28;20776;-64
2022/04/14 00:27:38;;;;;;;22.67;11.68;;;;;;;9.15;44.02;101229.88;2098070;28;20283;-64
2022/04/14 00:28:40;;;;;;;23.95;11.05;;;;;;;9.16;44.11;101226.91;2089306;28;20362;-64
2022/04/14 00:29:48;;;;;;;24.45;10.65;;;;;;;9.19;43.64;101225.63;2089814;28;20335;-64
2022/04/14 00:30:59;;;;;;;23.60;10.88;;;;;;;9.19;43.73;101230.97;2097540;28;20289;-64
2022/04/14 00:32:02;;;;;;;23.75;10.82;;;;;;;9.19;43.85;101228.28;2098104;28;20291;-64
2022/04/14 00:33:05;;;;;;;24.00;10.88;;;;;;;9.22;43.50;101219.75;2096871;28;20291;-63
2022/04/14 00:34:13;;;;;;;22.02;10.65;;;;;;;9.20;43.84;101211.13;2090025;28;20294;-63
2022/04/14 00:35:16;;;;;;;24.70;10.55;;;;;;;9.22;43.48;101219.75;2097787;28;20302;-63
2022/04/14 00:36:19;;;;;;;22.27;9.18;;;;;;;9.23;43.88;101221.34;2098334;28;20298;-62
2022/04/14 00:37:26;;;;;;;19.05;9.98;;;;;;;9.24;43.75;101223.81;2097336;28;20353;-63
2022/04/14 00:38:31;;;;;;;22.70;10.77;;;;;;;9.26;43.72;101220.84;2097667;28;20297;-64
2022/04/14 00:39:33;;;;;;;25.08;10.82;;;;;;;9.27;43.83;101219.81;2097528;28;20295;-64
2022/04/14 00:40:38;;;;;;;25.08;11.38;;;;;;;9.27;43.18;101219.81;2089140;28;20755;-64
2022/04/14 00:41:43;;;;;;;23.98;10.48;;;;;;;9.26;43.78;101216.28;2097186;28;20779;-65
2022/04/14 00:42:46;;;;;;;23.40;10.52;;;;;;;9.25;43.43;101213.88;2098362;28;20279;-64
2022/04/14 00:43:53;;;;;;;26.42;11.07;;;;;;;9.25;44.19;101219.22;2097419;28;20286;-64
2022/04/14 00:44:59;;;;;;;24.77;10.35;;;;;;;9.26;43.78;101215.47;2097257;28;20579;-64
2022/04/14 00:46:04;;;;;;;21.05;9.88;;;;;;;9.29;43.69;101212.28;2097326;28;20036;-65
2022/04/14 00:47:08;;;;;;;29.45;10.73;;;;;;;9.29;44.47;101213.09;2097311;28;20287;-65
2022/04/14 00:48:13;;;;;;;23.40;11.00;;;;;;;9.30;44.09;101208.56;2089257;28;20291;-64
2022/04/14 00:49:16;;;;;;;21.15;8.63;;;;;;;9.31;43.13;101209.38;2080871;28;20280;-64
2022/04/14 00:50:18;;;;;;;21.08;10.35;;;;;;;9.34;43.47;101215.03;2089932;28;20650;-64
2022/04/14 00:51:23;;;;;;;28.17;11.05;;;;;;;9.34;43.77;101211.53;2098701;28;20754;-64
2022/04/14 00:52:26;;;;;;;24.25;11.05;;;;;;;9.35;43.83;101208.59;2097223;28;20402;-65
2022/04/14 00:53:29;;;;;;;23.45;10.80;;;;;;;9.34;43.59;101206.97;2096792;28;20307;-64
2022/04/14 00:54:34;;;;;;;21.42;10.35;;;;;;;9.36;43.28;101214.75;2089239;28;20782;-65
2022/04/14 00:55:36;;;;;;;21.85;10.57;;;;;;;9.36;43.42;101207.53;2090413;28;20303;-65
2022/04/14 00:56:38;;;;;;;21.45;10.63;;;;;;;9.35;43.92;101205.91;2089171;28;20303;-65
2022/04/14 00:57:45;;;;;;;22.25;10.75;;;;;;;9.36;43.51;101215.56;2082361;28;20813;-65
2022/04/14 00:58:49;;;;;;;21.85;10.93;;;;;;;9.34;43.87;101212.34;2082950;28;20640;-65
2022/04/14 00:59:51;;;;;;;25.90;10.50;;;;;;;9.32;44.10;101202.94;2081131;28;20292;-65
2022/04/14 01:00:59;;;;;;;26.35;11.13;;;;;;;9.32;43.90;101198.38;2089605;28;20294;-65
2022/04/14 01:02:04;;;;;;;20.65;10.38;;;;;;;9.34;43.87;101201.63;2097588;28;20303;-65
2022/04/14 01:03:12;;;;;;;22.67;10.52;;;;;;;9.33;43.64;101197.31;2097663;28;20801;-64
2022/04/14 01:04:15;;;;;;;22.15;9.48;;;;;;;9.35;43.68;101197.06;2100197;28;20301;-64
2022/04/14 01:05:22;;;;;;;20.45;9.75;;;;;;;9.36;43.82;101204.03;2105721;28;20286;-65
2022/04/14 01:06:26;;;;;;;19.23;9.55;;;;;;;9.31;43.64;101196.75;2106098;28;20279;-64
2022/04/14 01:07:32;;;;;;;22.38;10.02;;;;;;;9.31;44.09;101202.13;2089026;28;20393;-64
2022/04/14 01:08:39;;;;;;;22.17;10.27;;;;;;;9.29;44.04;101198.88;2091191;28;20294;-65
2022/04/14 01:09:43;;;;;;;22.38;10.60;;;;;;;9.29;43.67;101193.50;2106044;28;20282;-65
2022/04/14 01:10:49;;;;;;;20.58;9.68;;;;;;;9.27;43.91;101195.66;2106155;28;20266;-65
2022/04/14 01:11:58;;;;;;;19.50;9.88;;;;;;;9.26;43.82;101194.00;2105690;28;20285;-65
2022/04/14 01:13:01;;;;;;;21.35;10.52;;;;;;;9.25;44.02;101190.53;2098026;28;20282;-64
2022/04/14 01:14:04;;;;;;;25.27;9.88;;;;;;;9.22;44.08;101188.34;2105175;28;20290;-66
2022/04/14 01:15:14;;;;;;;20.17;9.57;;;;;;;9.24;44.34;101186.22;2105864;28;20286;-65
2022/04/14 01:16:19;;;;;;;24.05;10.00;;;;;;;9.25;44.16;101187.03;2106231;28;20278;-64
2022/04/14 01:17:22;;;;;;;20.02;9.40;;;;;;;9.28;43.46;101190.03;2106100;28;20051;-64
2022/04/14 01:18:25;;;;;;;19.17;9.32;;;;;;;9.29;44.19;101182.78;2106057;28;20618;-64
2022/04/14 01:19:31;;;;;;;23.42;10.40;;;;;;;9.30;43.57;101184.41;2105301;28;20630;-64
2022/04/14 01:20:35;;;;;;;20.25;9.80;;;;;;;9.29;43.80;101182.78;2088058;28;20335;-64
2022/04/14 01:21:49;;;;;;;20.38;10.20;;;;;;;9.29;43.90;101177.41;2073308;28;20301;-64
2022/04/14 01:23:02;;;;;;;20.77;9.38;;;;;;;9.31;43.47;101172.59;2083806;28;20280;-64
2022/04/14 01:24:09;;;;;;;19.85;10.20;;;;;;;9.34;44.00;101179.34;2095911;28;20283;-64
2022/04/14 01:25:14;;;;;;;21.17;9.50;;;;;;;9.33;43.56;101180.38;2081771;28;20778;-64
2022/04/14 01:26:21;;;;;;;20.33;9.57;;;;;;;9.32;43.65;101176.09;2081644;28;20362;-64
2022/04/14 01:27:31;;;;;;;21.33;9.93;;;;;;;9.34;43.93;101179.34;2097199;28;20271;-64
2022/04/14 01:28:40;;;;;;;21.23;10.25;;;;;;;9.34;44.03;101171.28;2096787;28;20283;-64
2022/04/14 01:29:42;;;;;;;17.08;9.00;;;;;;;9.32;43.86;101179.59;2095465;28;20275;-64
2022/04/14 01:30:45;;;;;;;20.35;9.18;;;;;;;9.34;43.27;101179.34;2095785;28;20285;-64
2022/04/14 01:31:47;;;;;;;19.35;9.68;;;;;;;9.36;43.91;101161.09;2097219;28;20618;-65
2022/04/14 01:32:51;;;;;;;19.15;9.60;;;;;;;9.37;43.52;101158.16;2096440;28;20275;-65
2022/04/14 01:33:58;;;;;;;18.25;8.85;;;;;;;9.37;43.39;101163.53;2098005;28;20282;-65
2022/04/14 01:35:08;;;;;;;18.30;8.80;;;;;;;9.38;43.30;101153.59;2097873;28;20802;-65
2022/04/14 01:36:10;;;;;;;19.08;9.65;;;;;;;9.37;43.42;101158.16;2097139;28;20283;-63
2022/04/14 01:37:13;;;;;;;23.45;10.15;;;;;;;9.39;43.89;101158.69;2096638;28;20048;-64
2022/04/14 01:38:17;;;;;;;18.90;10.02;;;;;;;9.39;43.76;101155.22;2089223;28;20759;-65
2022/04/14 01:39:23;;;;;;;23.20;9.80;;;;;;;9.37;43.15;101158.16;2089740;28;20291;-64
2022/04/14 01:40:28;;;;;;;21.92;9.43;;;;;;;9.39;43.53;101153.34;2097910;28;20279;-64
2022/04/14 01:41:30;;;;;;;23.90;10.10;;;;;;;9.39;43.58;101150.66;2097330;28;20773;-64
2022/04/14 01:42:35;;;;;;;21.83;9.20;;;;;;;9.40;43.58;101144.25;2097052;28;20290;-65
2022/04/14 01:43:48;;;;;;;22.15;9.02;;;;;;;9.38;43.36;101146.34;2096787;28;20295;-65
2022/04/14 01:44:52;;;;;;;22.63;9.20;;;;;;;9.38;43.87;101137.50;2099508;28;20286;-65
2022/04/14 01:46:00;;;;;;;20.70;9.27;;;;;;;9.37;43.75;101139.38;2089257;28;20790;-65
2022/04/14 01:47:07;;;;;;;17.90;9.15;;;;;;;9.37;43.76;101147.44;2081167;28;20343;-64
2022/04/14 01:48:13;;;;;;;21.67;9.20;;;;;;;9.38;43.91;101143.69;2074577;28;20299;-65
2022/04/14 01:49:16;;;;;;;21.02;9.48;;;;;;;9.40;43.34;101138.88;2077540;28;20359;-64
2022/04/14 01:50:28;;;;;;;20.27;9.20;;;;;;;9.39;43.69;101139.91;2095754;28;20287;-64
2022/04/14 01:51:32;;;;;;;17.23;9.05;;;;;;;9.42;43.80;101141.28;2096930;28;20350;-64
2022/04/14 01:52:35;;;;;;;22.65;9.23;;;;;;;9.42;43.35;101139.41;2096640;28;20037;-63
2022/04/14 01:53:46;;;;;;;19.40;9.43;;;;;;;9.42;43.32;101142.09;2087990;28;20334;-64
2022/04/14 01:54:58;;;;;;;22.48;9.00;;;;;;;9.40;43.58;101130.81;2091758;28;20057;-64
2022/04/14 01:56:05;;;;;;;19.67;9.15;;;;;;;9.37;43.57;101131.34;2095564;28;20278;-64
2022/04/14 01:57:08;;;;;;;19.00;9.18;;;;;;;9.39;43.99;101129.19;2097242;28;20758;-65
2022/04/14 01:58:14;;;;;;;18.67;8.32;;;;;;;9.39;43.71;101131.06;2096739;28;20797;-64
2022/04/14 01:59:17;;;;;;;19.38;9.30;;;;;;;9.39;43.43;101123.00;2096730;28;20290;-64
2022/04/14 02:00:23;;;;;;;20.70;9.65;;;;;;;9.36;43.35;101124.31;2097498;28;20290;-64
2022/04/14 02:01:35;;;;;;;21.58;9.27;;;;;;;9.36;43.48;101120.84;2097465;28;20766;-64
2022/04/14 02:02:42;;;;;;;21.08;9.23;;;;;;;9.34;43.51;101125.66;2097457;28;20317;-64
2022/04/14 02:03:45;;;;;;;16.65;8.75;;;;;;;9.32;43.81;101120.53;2097486;28;20275;-64
2022/04/14 02:04:48;;;;;;;18.67;9.18;;;;;;;9.34;43.82;101117.63;2104299;28;20839;-64
2022/04/14 02:05:53;;;;;;;16.77;8.68;;;;;;;9.36;43.72;101115.47;2097326;28;20297;-63
2022/04/14 02:06:56;;;;;;;21.42;9.05;;;;;;;9.36;43.98;101115.47;2105484;28;20289;-64
2022/04/14 02:08:02;;;;;;;18.27;9.02;;;;;;;9.35;43.82;101117.34;2105809;28;20267;-65
2022/04/14 02:09:05;;;;;;;17.42;8.50;;;;;;;9.35;43.84;101116.53;2105368;28;20791;-65
2022/04/14 02:10:09;;;;;;;21.33;9.05;;;;;;;9.35;43.64;101116.53;2104719;28;20389;-66
2022/04/14 02:11:15;;;;;;;21.85;8.63;;;;;;;9.33;43.35;101119.50;2105959;28;20619;-66
2022/04/14 02:12:17;;;;;;;19.88;9.27;;;;;;;9.35;44.01;101122.72;2105645;28;20610;-64
2022/04/14 02:13:22;;;;;;;18.45;8.48;;;;;;;9.34;43.54;101115.75;2105073;28;20290;-64
2022/04/14 02:14:27;;;;;;;18.02;8.30;;;;;;;9.34;43.71;101121.09;2097386;28;20309;-64
2022/04/14 02:15:29;;;;;;;23.77;8.82;;;;;;;9.36;43.22;101121.63;2102767;28;20316;-64
2022/04/14 02:16:34;;;;;;;20.15;8.73;;;;;;;9.37;43.39;101115.22;2096362;28;20294;-64
2022/04/14 02:17:39;;;;;;;19.05;9.07;;;;;;;9.36;43.49;101127.00;2089608;28;20287;-63
2022/04/14 02:18:46;;;;;;;20.50;8.82;;;;;;;9.34;43.60;101115.75;2096554;28;20287;-64
2022/04/14 02:19:49;;;;;;;18.60;8.88;;;;;;;9.34;43.99;101110.38;2096398;28;20294;-64
2022/04/14 02:20:54;;;;;;;22.92;9.68;;;;;;;9.33;43.99;101111.44;2096435;28;20294;-64
2022/04/14 02:21:59;;;;;;;18.20;8.15;;;;;;;9.35;43.49;101111.97;2088771;28;20285;-64
2022/04/14 02:23:04;;;;;;;20.10;9.02;;;;;;;9.37;43.68;101109.84;2089298;28;20755;-64
2022/04/14 02:24:09;;;;;;;19.73;8.75;;;;;;;9.37;43.68;101109.84;2096603;28;20286;-64
2022/04/14 02:25:11;;;;;;;21.67;10.65;;;;;;;9.36;43.89;101115.47;2096881;28;20364;-65
2022/04/14 02:26:21;;;;;;;23.05;10.07;;;;;;;9.38;43.92;101113.34;2097450;28;20283;-66
2022/04/14 02:27:25;;;;;;;22.67;10.70;;;;;;;9.39;43.65;101113.06;2087787;28;20037;-65
2022/04/14 02:28:29;;;;;;;19.83;10.32;;;;;;;9.39;43.39;101113.06;2082109;28;20292;-64
2022/04/14 02:29:32;;;;;;;28.73;11.25;;;;;;;9.39;43.73;101114.97;2096908;28;20758;-64
2022/04/14 02:30:41;;;;;;;23.55;10.02;;;;;;;9.38;43.79;101116.84;2096853;28;20317;-64
2022/04/14 02:31:43;;;;;;;27.15;10.05;;;;;;;9.38;43.60;101116.03;2089061;28;20280;-64
2022/04/14 02:32:45;;;;;;;23.90;10.63;;;;;;;9.38;43.56;101116.84;2088821;28;20825;-64
2022/04/14 02:33:48;;;;;;;21.85;9.13;;;;;;;9.41;43.50;101108.28;2088689;28;20288;-64
2022/04/14 02:34:55;;;;;;;21.05;10.25;;;;;;;9.42;43.82;101109.88;2089302;28;20283;-64
2022/04/14 02:35:57;;;;;;;21.33;9.50;;;;;;;9.42;43.30;101112.56;2096485;28;20804;-64
2022/04/14 02:37:02;;;;;;;19.40;9.32;;;;;;;9.43;43.41;101108.84;2097064;28;20275;-64
2022/04/14 02:38:07;;;;;;;15.63;8.65;;;;;;;9.40;43.78;101109.34;2097261;28;20302;-64
2022/04/14 02:39:09;;;;;;;18.02;8.73;;;;;;;9.40;43.48;101103.97;2097096;28;20634;-64
2022/04/14 02:40:13;;;;;;;19.08;9.35;;;;;;;9.43;43.06;101108.84;2106174;28;20289;-64
2022/04/14 02:41:18;;;;;;;20.10;8.88;;;;;;;9.46;43.29;101108.31;2098482;28;20282;-64
2022/04/14 02:42:24;;;;;;;20.15;8.45;;;;;;;9.51;43.07;101115.59;2098389;28;20306;-64
2022/04/14 02:43:31;;;;;;;18.73;8.13;;;;;;;9.55;43.43;101110.50;2082569;28;20456;-64
2022/04/14 02:44:34;;;;;;;15.98;8.30;;;;;;;9.59;43.12;101106.25;2087332;28;20279;-63
2022/04/14 02:45:37;;;;;;;16.27;7.78;;;;;;;9.61;43.36;101106.78;2102458;28;20780;-63
2022/04/14 02:46:46;;;;;;;17.05;8.50;;;;;;;9.60;42.66;101106.00;2081952;28;20292;-63
2022/04/14 02:47:49;;;;;;;16.27;7.90;;;;;;;9.65;42.93;101099.88;2083608;28;20272;-63
2022/04/14 02:48:57;;;;;;;15.65;8.10;;;;;;;9.66;43.03;101099.59;2090358;28;20279;-64
2022/04/14 02:50:05;;;;;;;17.92;8.43;;;;;;;9.67;42.90;101097.72;2098043;28;20283;-65
2022/04/14 02:51:08;;;;;;;22.50;9.20;;;;;;;9.66;43.12;101106.84;2099092;28;20278;-64
2022/04/14 02:52:11;;;;;;;21.52;8.73;;;;;;;9.67;42.85;101103.06;2098386;28;20290;-63
2022/04/14 02:53:13;;;;;;;17.83;7.90;;;;;;;9.68;42.83;101093.97;2102710;28;20286;-64
2022/04/14 02:54:16;;;;;;;17.10;8.82;;;;;;;9.69;42.87;101096.38;2107322;28;20285;-64
2022/04/14 02:55:19;;;;;;;21.15;8.32;;;;;;;9.66;42.37;101093.41;2098210;28;20294;-64
2022/04/14 02:56:23;;;;;;;19.25;8.35;;;;;;;9.67;42.52;101106.56;2098701;28;20290;-64
2022/04/14 02:57:32;;;;;;;18.73;8.57;;;;;;;9.67;42.54;101092.34;2098520;28;20282;-64
2022/04/14 02:58:40;;;;;;;16.90;7.78;;;;;;;9.66;42.34;101098.78;2099020;28;20510;-63
2022/04/14 02:59:42;;;;;;;19.13;8.38;;;;;;;9.64;42.69;101099.03;2081563;28;20284;-63
2022/04/14 03:00:45;;;;;;;18.38;8.75;;;;;;;9.66;42.64;101096.09;2074546;28;20371;-64
2022/04/14 03:01:48;;;;;;;19.92;9.27;;;;;;;9.65;42.92;101097.97;2081892;28;20802;-65
2022/04/14 03:02:50;;;;;;;18.52;8.57;;;;;;;9.63;42.71;101100.09;2090359;28;20307;-64
2022/04/14 03:03:55;;;;;;;16.70;7.97;;;;;;;9.56;43.05;101101.41;2089867;28;20288;-64
2022/04/14 03:04:59;;;;;;;16.80;8.35;;;;;;;9.54;42.70;101098.16;2091286;28;20418;-64
2022/04/14 03:06:03;;;;;;;16.00;8.05;;;;;;;9.54;43.17;101103.53;2098512;28;20432;-64
2022/04/14 03:07:05;;;;;;;16.15;8.23;;;;;;;9.50;42.47;101105.94;2098359;28;20287;-64
2022/04/14 03:08:07;;;;;;;19.73;8.02;;;;;;;9.51;43.11;101105.66;2106776;28;20289;-64
2022/04/14 03:09:11;;;;;;;19.98;8.25;;;;;;;9.51;42.96;101105.66;2107445;28;20293;-64
2022/04/14 03:10:15;;;;;;;17.38;8.63;;;;;;;9.49;42.56;101105.13;2106406;28;20308;-64
2022/04/14 03:11:21;;;;;;;21.05;8.50;;;;;;;9.49;42.88;101104.31;2082080;28;20296;-65
2022/04/14 03:12:24;;;;;;;16.52;8.13;;;;;;;9.50;43.01;101097.88;2091166;28;20302;-64
2022/04/14 03:13:30;;;;;;;17.27;8.40;;;;;;;9.50;43.08;101103.25;2097692;28;20773;-63
2022/04/14 03:14:32;;;;;;;18.30;9.00;;;;;;;9.49;42.97;101097.06;2098598;28;20290;-63
2022/04/14 03:15:38;;;;;;;28.80;9.32;;;;;;;9.48;42.71;101100.81;2107434;28;20290;-63
2022/04/14 03:16:45;;;;;;;16.33;8.77;;;;;;;9.45;42.91;101104.00;2106392;28;20320;-64
2022/04/14 03:17:50;;;;;;;16.10;8.18;;;;;;;9.42;43.02;101095.66;2106027;28;20273;-63
2022/04/14 03:18:55;;;;;;;18.83;8.48;;;;;;;9.40;42.97;101101.28;2107121;28;20622;-63
2022/04/14 03:20:00;;;;;;;20.38;8.98;;;;;;;9.41;42.79;101102.09;2106642;28;20649;-63
2022/04/14 03:21:05;;;;;;;17.55;8.20;;;;;;;9.42;42.96;101101.84;2090458;28;20288;-63
2022/04/14 03:22:07;;;;;;;19.77;9.05;;;;;;;9.43;42.78;101100.78;2091221;28;20291;-63
2022/04/14 03:23:11;;;;;;;22.83;9.50;;;;;;;9.42;43.03;101099.16;2105449;28;20305;-64
2022/04/14 03:24:16;;;;;;;19.63;8.60;;;;;;;9.40;42.89;101093.25;2106032;28;20700;-64
2022/04/14 03:25:18;;;;;;;19.90;8.70;;;;;;;9.38;42.75;101095.38;2090363;28;20295;-64
2022/04/14 03:26:24;;;;;;;18.92;7.88;;;;;;;9.39;42.73;101086.25;2099661;28;20816;-64
2022/04/14 03:27:28;;;;;;;22.05;8.25;;;;;;;9.43;42.99;101091.94;2105936;28;20294;-64
2022/04/14 03:28:34;;;;;;;14.90;7.85;;;;;;;9.44;42.75;101083.59;2098814;28;20275;-63
2022/04/14 03:29:36;;;;;;;21.38;8.80;;;;;;;9.45;43.01;101087.91;2098545;28;20722;-63
2022/04/14 03:30:38;;;;;;;15.57;8.27;;;;;;;9.42;42.97;101091.09;2089994;28;20288;-66
2022/04/14 03:31:41;;;;;;;21.13;8.95;;;;;;;9.42;42.94;101082.25;2097985;28;20313;-63
2022/04/14 03:32:45;;;;;;;19.20;8.65;;;;;;;9.37;42.87;101088.41;2103714;28;20301;-63
2022/04/14 03:33:47;;;;;;;18.67;9.43;;;;;;;9.37;43.00;101076.84;2080456;28;20310;-64
2022/04/14 03:34:57;;;;;;;21.02;9.07;;;;;;;9.34;43.23;101083.53;2081937;28;20276;-64
2022/04/14 03:36:02;;;;;;;18.80;8.60;;;;;;;9.32;43.36;101079.50;2096533;28;20299;-63
2022/04/14 03:37:07;;;;;;;15.95;8.55;;;;;;;9.27;43.13;101078.41;2096852;28;20295;-63
2022/04/14 03:38:15;;;;;;;17.40;8.27;;;;;;;9.29;43.17;101072.75;2072948;28;20648;-63
2022/04/14 03:39:23;;;;;;;19.27;8.75;;;;;;;9.32;42.68;101066.88;2082079;28;20292;-64
2022/04/14 03:40:31;;;;;;;23.17;9.55;;;;;;;9.35;42.89;101062.88;2104951;28;20296;-64
2022/04/14 03:41:38;;;;;;;17.70;9.32;;;;;;;9.37;42.77;101066.91;2096101;28;20302;-64
2022/04/14 03:42:44;;;;;;;21.98;9.30;;;;;;;9.35;42.91;101062.88;2081558;28;20315;-63
2022/04/14 03:43:47;;;;;;;19.65;9.13;;;;;;;9.34;42.52;101056.69;2080757;28;20311;-63
2022/04/14 03:44:58;;;;;;;18.48;8.55;;;;;;;9.37;42.44;101053.50;2076223;28;20311;-63
2022/04/14 03:46:09;;;;;;;20.25;8.48;;;;;;;9.38;42.77;101054.31;2083451;28;20312;-63
2022/04/14 03:47:12;;;;;;;17.75;9.15;;;;;;;9.39;43.05;101053.22;2089908;28;20985;-64
2022/04/14 03:48:20;;;;;;;20.42;9.00;;;;;;;9.36;42.57;101049.19;2088072;28;20061;-63
2022/04/14 03:49:32;;;;;;;19.83;9.00;;;;;;;9.33;42.68;101049.72;2088023;28;20291;-63
2022/04/14 03:50:39;;;;;;;19.15;9.15;;;;;;;9.40;42.82;101044.94;2080813;28;20311;-63
2022/04/14 03:51:45;;;;;;;19.92;8.63;;;;;;;9.42;42.64;101040.09;2082576;28;20284;-64
2022/04/14 03:52:52;;;;;;;17.73;8.75;;;;;;;9.46;42.11;101037.72;2090867;28;20275;-63
2022/04/14 03:53:55;;;;;;;16.35;8.52;;;;;;;9.49;42.62;101051.44;2096561;28;20286;-63
2022/04/14 03:55:01;;;;;;;18.33;8.80;;;;;;;9.55;42.94;101043.41;2080725;28;20909;-63
2022/04/14 03:56:11;;;;;;;17.20;9.10;;;;;;;9.56;42.46;101042.34;2064889;28;20297;-63
2022/04/14 03:57:14;;;;;;;21.60;9.13;;;;;;;9.58;42.20;101040.19;2075346;28;20281;-63
2022/04/14 03:58:17;;;;;;;20.60;9.02;;;;;;;9.61;42.17;101039.69;2064782;28;20038;-63
2022/04/14 03:59:25;;;;;;;18.73;8.75;;;;;;;9.65;42.26;101036.22;2073259;28;20288;-63
2022/04/14 04:00:30;;;;;;;18.67;8.50;;;;;;;9.69;41.78;101031.94;2103500;28;20396;-63
2022/04/14 04:01:39;;;;;;;17.65;8.23;;;;;;;9.74;41.88;101029.31;2087505;28;20296;-63
2022/04/14 04:02:52;;;;;;;18.38;8.70;;;;;;;9.79;41.88;101028.50;2092816;28;20287;-63
2022/04/14 04:03:58;;;;;;;22.05;8.68;;;;;;;9.81;41.69;101028.25;2104059;28;20946;-63
2022/04/14 04:05:05;;;;;;;17.52;8.70;;;;;;;9.84;41.53;101028.53;2079983;28;20779;-63
2022/04/14 04:06:20;;;;;;;18.92;9.57;;;;;;;9.87;41.22;101024.53;2081886;28;20833;-70
2022/04/14 04:07:28;;;;;;;17.52;8.77;;;;;;;9.91;41.51;101029.09;2087444;28;20303;-69
2022/04/14 04:08:35;;;;;;;21.30;8.80;;;;;;;9.91;41.34;101023.72;2075620;28;20284;-70
2022/04/14 04:09:40;;;;;;;15.30;8.70;;;;;;;9.93;41.13;101026.13;2082087;28;20284;-70
2022/04/14 04:10:43;;;;;;;20.85;9.18;;;;;;;9.96;41.24;101026.44;2096165;28;20287;-69
2022/04/14 04:11:47;;;;;;;19.40;8.68;;;;;;;9.98;40.84;101029.66;2095964;28;20881;-70
2022/04/14 04:12:50;;;;;;;18.50;8.88;;;;;;;10.01;41.08;101033.69;2096273;28;20275;-72
2022/04/14 04:13:54;;;;;;;21.42;8.65;;;;;;;10.04;41.09;101027.00;2079959;28;20300;-70
2022/04/14 04:14:57;;;;;;;17.70;8.82;;;;;;;10.08;41.43;101038.81;2080590;28;20280;-69
2022/04/14 04:15:59;;;;;;;18.30;9.10;;;;;;;10.08;40.92;101026.19;2088436;28;20336;-69
2022/04/14 04:17:01;;;;;;;19.50;9.00;;;;;;;10.11;41.36;101030.25;2080221;28;20284;-67
2022/04/14 04:18:07;;;;;;;15.88;8.85;;;;;;;10.13;41.12;101033.47;2080070;28;20391;-68
2022/04/14 04:19:11;;;;;;;19.27;9.35;;;;;;;10.11;40.91;101032.94;2080318;28;20613;-69
2022/04/14 04:20:21;;;;;;;18.92;9.20;;;;;;;10.15;40.78;101034.00;2072006;28;20353;-68
2022/04/14 04:21:31;;;;;;;20.50;8.60;;;;;;;10.16;41.30;101041.03;2083473;28;20330;-68
2022/04/14 04:22:38;;;;;;;18.55;9.00;;;;;;;10.17;40.76;101030.00;2079670;28;20665;-71
2022/04/14 04:23:42;;;;;;;16.88;8.75;;;;;;;10.20;40.84;101029.47;2074355;28;20772;-71
2022/04/14 04:24:46;;;;;;;17.05;8.68;;;;;;;10.23;41.19;101030.81;2095672;28;20287;-69
2022/04/14 04:25:49;;;;;;;19.38;9.07;;;;;;;10.25;41.44;101033.25;2096876;28;20266;-68
2022/04/14 04:26:52;;;;;;;22.58;9.57;;;;;;;10.23;40.84;101030.81;2096215;28;20370;-69
2022/04/14 04:28:00;;;;;;;19.27;9.32;;;;;;;10.25;41.33;101031.38;2096043;28;20290;-71
2022/04/14 04:29:03;;;;;;;19.88;9.32;;;;;;;10.26;40.92;101035.69;2096941;28;20298;-70
2022/04/14 04:30:07;;;;;;;21.42;9.07;;;;;;;10.29;41.28;101035.16;2096508;28;20299;-68
2022/04/14 04:31:14;;;;;;;17.85;9.18;;;;;;;10.30;41.26;101034.09;2096962;28;20279;-68
2022/04/14 04:32:16;;;;;;;22.60;9.60;;;;;;;10.33;41.50;101028.19;2088025;28;20685;-71
2022/04/14 04:33:33;;;;;;;18.23;8.73;;;;;;;10.33;40.91;101028.19;2089293;28;20298;-71
2022/04/14 04:34:39;;;;;;;21.33;9.32;;;;;;;10.29;41.14;101029.78;2096162;28;21090;-71
2022/04/14 04:35:41;;;;;;;26.50;9.18;;;;;;;10.31;41.48;101030.34;2096882;28;20279;-71
2022/04/14 04:36:44;;;;;;;24.58;8.73;;;;;;;10.36;41.23;101037.59;2096962;28;20602;-72
2022/04/14 04:37:49;;;;;;;19.73;9.25;;;;;;;10.35;41.27;101028.75;2096307;28;20279;-71
2022/04/14 04:38:52;;;;;;;19.80;9.70;;;;;;;10.32;41.44;101029.25;2088243;28;20292;-69
2022/04/14 04:39:55;;;;;;;18.55;8.68;;;;;;;10.34;41.36;101029.81;2080141;28;20877;-69
2022/04/14 04:41:07;;;;;;;18.85;8.70;;;;;;;10.35;41.01;101028.75;2081637;28;20284;-69
2022/04/14 04:42:12;;;;;;;33.67;9.65;;;;;;;10.40;41.44;101026.06;2090102;28;20295;-63
2022/04/14 04:43:19;;;;;;;20.50;9.60;;;;;;;10.43;41.03;101025.53;2096351;28;20044;-62
2022/04/14 04:44:22;;;;;;;21.92;9.43;;;;;;;10.51;41.65;101032.25;2097298;28;20305;-61
2022/04/14 04:45:25;;;;;;;20.98;10.00;;;;;;;10.57;41.24;101022.34;2104604;28;20290;-66
2022/04/14 04:46:28;;;;;;;20.40;9.05;;;;;;;10.60;40.73;101032.56;2105582;28;20274;-63
2022/04/14 04:47:36;;;;;;;22.88;9.52;;;;;;;10.67;41.19;101020.44;2096190;28;20655;-61
2022/04/14 04:48:39;;;;;;;26.58;9.45;;;;;;;10.76;41.18;101018.03;2089909;28;20291;-62
2022/04/14 04:49:44;;;;;;;22.02;9.73;;;;;;;10.79;41.22;101022.88;2098186;28;20279;-62
2022/04/14 04:50:51;;;;;;;23.17;9.77;;;;;;;10.88;40.80;101021.28;2080688;28;20299;-62
2022/04/14 04:51:59;;;;;;;20.75;9.45;;;;;;;10.95;40.77;101017.50;2068095;28;20304;-62
2022/04/14 04:53:04;;;;;;;20.38;9.45;;;;;;;10.96;40.93;101019.91;2085206;28;20388;-62
2022/04/14 04:54:09;;;;;;;17.48;8.68;;;;;;;11.02;40.67;101020.72;2104866;28;20286;-62
2022/04/14 04:55:13;;;;;;;17.73;9.65;;;;;;;11.03;39.94;101020.44;2088813;28;20662;-63
2022/04/14 04:56:18;;;;;;;19.77;9.70;;;;;;;11.08;40.27;101019.66;2081444;28;20288;-62
2022/04/14 04:57:20;;;;;;;27.35;9.88;;;;;;;11.17;40.53;101012.66;2089556;28;20286;-63
2022/04/14 04:58:28;;;;;;;19.58;9.45;;;;;;;11.24;40.21;101013.16;2081725;28;20292;-62
2022/04/14 04:59:31;;;;;;;23.80;10.27;;;;;;;11.44;40.12;101022.28;2090686;28;20284;-62
2022/04/14 05:00:33;;;;;;;20.15;9.77;;;;;;;11.67;39.64;101015.50;2097984;28;20745;-62
2022/04/14 05:01:36;;;;;;;43.78;11.15;;;;;;;11.83;39.09;101014.38;2098299;28;20283;-62